Norman Wells Airport
CYVQ : now visible

Airfield :











YOU CAN JOIN US ON...

 
LOGIN :

Register | Disclaimer

   EN    FR    IT 

 









Legend :    VFR   Marginal VFR   IFR   Intensive IFR   Very Intensive IFR
Visi :
Ceiling :
>= 8 km
>= 3000ft
5 to 8 km
1000 to 3000 ft
1500m to 5 km
500 to 1000 ft
800 to 1500m
200 to 500 ft
< 800m
< 200 ft
Symbols :   Thunderstorms  Fog  Heavy snow  Heavy precipitations  Wind > 20 kt






- Airport Elevation : 238 ft
- IATA code : YVQ


CYVQ - Norman Wells

CURRENT METAR :
  • 082000Z 10005KT 30SM FEW070 FEW100 M29/M32 A3009 RMK AC1AC2 SLP202

EXPIRED METARs :
  • 081900Z 11006KT 30SM FEW100 M29/M32 A3008 RMK AC2 SLP199
  • 081800Z 10003KT 30SM FEW100 M34/M38 A3007 RMK AC1 SLP198

TAF TAF CYVQ
Valid from the 08 at 18:00 until the 09 at 06:00 UTC


081738Z 0818/0906 VRB03KT P6SM FEW100
BECMG 0819/0821 12008KT RMK NXT FCST BY 090000Z



MET'MAP, your aeronautical weather chart ! - Copyright ORBIFLY December 2007 - Disclaimer

ORBIFLY MET'MAP TEAM :

Programming & Development : Alexandra Zaïnal
Concept & original design : Baudouin d'Aumeries
Assistance for programming : Marc-Olivier Méhu
Technical & hardware support : Manuel Goepfert

Contact : metmap@orbifly.com




SOURCES & CREDITS :

   NOAA       Earth
Advisory